createdAt,value
2023-01-26T00:01:38.254Z,96464.00
2023-01-26T00:04:07.590Z,96467.44
2023-01-26T00:06:36.482Z,96464.00
2023-01-26T00:09:05.572Z,96468.22
2023-01-26T00:11:34.054Z,96461.63
2023-01-26T00:14:04.103Z,96454.88
2023-01-26T00:16:32.819Z,96454.06
2023-01-26T00:19:03.231Z,96448.34
2023-01-26T00:21:31.856Z,96447.63
2023-01-26T00:24:01.088Z,96457.66
2023-01-26T00:26:31.947Z,96448.50
2023-01-26T00:29:03.453Z,96453.44
2023-01-26T00:31:32.529Z,96451.03
2023-01-26T00:34:01.300Z,96452.78
2023-01-26T00:36:29.829Z,96449.41
2023-01-26T00:41:58.425Z,96449.47
2023-01-26T00:44:33.679Z,96442.03
2023-01-26T00:47:02.133Z,96442.91
2023-01-26T00:49:30.851Z,96448.81
2023-01-26T00:51:59.956Z,96443.88
2023-01-26T00:54:28.692Z,96447.28
2023-01-26T00:56:57.787Z,96443.09
2023-01-26T00:59:26.570Z,96437.19
2023-01-26T01:01:56.647Z,96434.69
2023-01-26T01:04:25.058Z,96433.06
2023-01-26T01:06:53.518Z,96435.53
2023-01-26T01:09:21.678Z,96436.31
2023-01-26T01:11:50.779Z,96427.31
2023-01-26T01:14:19.907Z,96432.09
2023-01-26T01:16:49.797Z,96429.63
2023-01-26T01:19:20.588Z,96439.13
2023-01-26T01:21:49.211Z,96421.81
2023-01-26T01:24:17.863Z,96423.38
2023-01-26T01:26:46.418Z,96417.56
2023-01-26T01:29:15.677Z,96418.41
2023-01-26T01:31:44.938Z,96413.47
2023-01-26T01:34:13.864Z,96419.28
2023-01-26T01:36:43.918Z,96415.72
2023-01-26T01:39:12.839Z,96401.59
2023-01-26T01:41:41.670Z,96406.53
2023-01-26T01:44:18.938Z,96399.81
2023-01-26T01:46:50.938Z,96399.69
2023-01-26T01:49:21.156Z,96403.06
2023-01-26T01:51:55.324Z,96409.00
2023-01-26T01:54:30.260Z,96403.19
2023-01-26T01:57:01.382Z,96393.38
2023-01-26T01:59:31.003Z,96388.50
2023-01-26T02:01:59.737Z,96391.16
2023-01-26T02:04:28.897Z,96389.34
2023-01-26T02:07:00.919Z,96386.78
2023-01-26T02:10:00.000Z,96380.91
2023-01-26T02:12:32.116Z,96374.28
2023-01-26T02:15:00.743Z,96381.22
2023-01-26T02:17:30.366Z,96377.88
2023-01-26T02:20:04.708Z,96378.72
2023-01-26T02:22:43.166Z,96381.13
2023-01-26T02:25:18.338Z,96378.59
2023-01-26T02:28:13.441Z,96377.88
2023-01-26T02:30:43.051Z,96369.47
2023-01-26T02:33:16.628Z,96362.72
2023-01-26T02:35:47.093Z,96356.03
2023-01-26T02:38:15.708Z,96361.97
2023-01-26T02:41:04.654Z,96354.47
2023-01-26T02:43:34.229Z,96348.56
2023-01-26T02:46:02.779Z,96342.91
2023-01-26T02:48:54.390Z,96344.69
2023-01-26T02:51:23.008Z,96348.00
2023-01-26T02:53:51.578Z,96350.28
2023-01-26T02:56:19.224Z,96347.78
2023-01-26T02:58:49.804Z,96350.22
2023-01-26T03:01:27.652Z,96339.38
2023-01-26T03:03:56.164Z,96342.66
2023-01-26T03:06:24.655Z,96346.81
2023-01-26T03:08:53.645Z,96350.22
2023-01-26T03:11:22.501Z,96349.34
2023-01-26T03:13:52.330Z,96348.50
2023-01-26T03:16:20.954Z,96356.94
2023-01-26T03:19:06.736Z,96355.25
2023-01-26T03:21:52.343Z,96346.03
2023-01-26T03:24:38.833Z,96337.69
2023-01-26T03:27:25.269Z,96335.19
2023-01-26T03:29:55.896Z,96334.50
2023-01-26T03:32:24.760Z,96323.69
2023-01-26T03:34:53.594Z,96327.06
2023-01-26T03:37:22.851Z,96313.69
2023-01-26T03:40:09.205Z,96314.47
2023-01-26T03:42:56.815Z,96317.81
2023-01-26T03:45:45.606Z,96321.19
2023-01-26T03:48:31.876Z,96317.88
2023-01-26T03:51:17.967Z,96318.66
2023-01-26T03:54:04.275Z,96323.69
2023-01-26T03:56:33.974Z,96318.78
2023-01-26T03:59:08.653Z,96330.53
2023-01-26T04:01:39.877Z,96313.69
2023-01-26T04:04:26.903Z,96318.69
2023-01-26T04:07:14.155Z,96314.47
2023-01-26T04:09:42.656Z,96312.84
2023-01-26T04:12:12.488Z,96314.53
2023-01-26T04:18:10.998Z,96305.28
2023-01-26T04:20:56.990Z,96297.78
2023-01-26T04:23:25.491Z,96297.84
2023-01-26T04:25:53.709Z,96295.63
2023-01-26T04:28:22.234Z,96292.28
2023-01-26T04:30:52.070Z,96285.59
2023-01-26T04:33:29.706Z,96286.31
2023-01-26T04:35:58.611Z,96282.97
2023-01-26T04:38:27.343Z,96279.50
2023-01-26T04:40:56.360Z,96284.47
2023-01-26T04:43:25.283Z,96276.91
2023-01-26T04:46:01.582Z,96280.41
2023-01-26T04:48:32.068Z,96275.59
2023-01-26T04:51:02.332Z,96273.16
2023-01-26T04:53:31.484Z,96279.00
2023-01-26T04:56:00.811Z,96269.91
2023-01-26T04:58:31.386Z,96275.53
2023-01-26T05:01:00.332Z,96267.91
2023-01-26T05:03:29.068Z,96271.22
2023-01-26T05:05:59.232Z,96277.00
2023-01-26T05:08:27.939Z,96269.31
2023-01-26T05:10:56.584Z,96265.91
2023-01-26T05:13:29.321Z,96268.59
2023-01-26T05:16:01.980Z,96271.22
2023-01-26T05:18:30.933Z,96266.97
2023-01-26T05:21:00.912Z,96275.31
2023-01-26T05:23:29.476Z,96266.91
2023-01-26T05:25:58.301Z,96272.00
2023-01-26T05:28:26.887Z,96263.75
2023-01-26T05:30:55.607Z,96266.31
2023-01-26T05:33:24.984Z,96270.56
2023-01-26T05:35:54.258Z,96269.78
2023-01-26T05:38:24.172Z,96266.53
2023-01-26T05:40:52.620Z,96267.25
2023-01-26T05:43:20.877Z,96265.50
2023-01-26T05:45:49.953Z,96265.41
2023-01-26T05:48:18.948Z,96262.88
2023-01-26T05:50:47.701Z,96273.88
2023-01-26T05:53:16.098Z,96274.09
2023-01-26T05:55:46.955Z,96278.25
2023-01-26T05:58:15.544Z,96279.84
2023-01-26T06:00:46.111Z,96280.66
2023-01-26T06:03:15.083Z,96280.75
2023-01-26T06:05:43.742Z,96284.09
2023-01-26T06:08:12.326Z,96278.25
2023-01-26T06:10:41.394Z,96282.41
2023-01-26T06:13:11.584Z,96280.75
2023-01-26T06:15:41.223Z,96283.31
2023-01-26T06:18:09.991Z,96284.16
2023-01-26T06:20:38.408Z,96286.50
2023-01-26T06:23:14.520Z,96283.13
2023-01-26T06:25:43.236Z,96288.06
2023-01-26T06:28:13.344Z,96286.31
2023-01-26T06:30:44.927Z,96282.03
2023-01-26T06:33:14.647Z,96278.72
2023-01-26T06:36:02.320Z,96281.22
2023-01-26T06:38:31.079Z,96281.28
2023-01-26T06:41:03.272Z,96275.38
2023-01-26T06:43:34.186Z,96276.13
2023-01-26T06:46:04.185Z,96278.66
2023-01-26T06:48:35.156Z,96276.97
2023-01-26T06:51:07.058Z,96281.38
2023-01-26T06:53:38.921Z,96273.06
2023-01-26T06:56:07.881Z,96273.06
2023-01-26T06:58:39.972Z,96281.38
2023-01-26T07:01:08.525Z,96276.31
2023-01-26T07:03:37.118Z,96279.56
2023-01-26T07:06:08.326Z,96276.25
2023-01-26T07:08:37.269Z,96273.78
2023-01-26T07:11:08.907Z,96269.50
2023-01-26T07:13:39.771Z,96266.91
2023-01-26T07:16:10.463Z,96276.91
2023-01-26T07:18:39.236Z,96276.88
2023-01-26T07:21:13.917Z,96269.31
2023-01-26T07:23:42.680Z,96276.75
2023-01-26T07:26:11.123Z,96277.59
2023-01-26T07:28:41.173Z,96267.41
2023-01-26T07:31:10.376Z,96266.50
2023-01-26T07:33:38.905Z,96268.16
2023-01-26T07:36:07.838Z,96264.75
2023-01-26T07:38:36.656Z,96269.81
2023-01-26T07:41:10.088Z,96272.44
2023-01-26T07:43:41.631Z,96271.66
2023-01-26T07:46:12.632Z,96272.53
2023-01-26T07:48:41.986Z,96269.84
2023-01-26T07:51:11.386Z,96270.56
2023-01-26T07:53:41.316Z,96280.66
2023-01-26T07:56:12.086Z,96278.31
2023-01-26T07:58:42.302Z,96268.03
2023-01-26T08:01:14.834Z,96274.09
2023-01-26T08:03:45.626Z,96271.91
2023-01-26T08:06:18.977Z,96269.50
2023-01-26T08:08:51.359Z,96273.66
2023-01-26T08:11:22.561Z,96266.78
2023-01-26T08:13:52.642Z,96259.81
2023-01-26T08:16:21.419Z,96262.94
2023-01-26T08:18:50.058Z,96259.47
2023-01-26T08:21:19.353Z,96264.84
2023-01-26T08:23:50.669Z,96259.09
2023-01-26T08:26:21.048Z,96271.91
2023-01-26T08:28:51.967Z,96269.44
2023-01-26T08:31:21.817Z,96260.09
2023-01-26T08:33:52.147Z,96255.75
2023-01-26T08:36:22.767Z,96264.06
2023-01-26T08:38:51.928Z,96259.84
2023-01-26T08:41:20.779Z,96253.00
2023-01-26T08:43:49.773Z,96258.16
2023-01-26T08:46:19.527Z,96254.50
2023-01-26T08:48:47.973Z,96255.44
2023-01-26T08:51:16.579Z,96253.59
2023-01-26T08:53:45.663Z,96246.03
2023-01-26T08:56:14.689Z,96254.34
2023-01-26T08:58:43.727Z,96255.06
2023-01-26T09:01:13.633Z,96250.69
2023-01-26T09:03:44.794Z,96253.06
2023-01-26T09:06:16.116Z,96246.59
2023-01-26T09:08:45.076Z,96249.72
2023-01-26T09:11:14.304Z,96252.75
2023-01-26T09:13:43.041Z,96250.00
2023-01-26T09:16:36.180Z,96250.53
2023-01-26T09:19:06.362Z,96259.66
2023-01-26T09:21:34.725Z,96260.31
2023-01-26T09:24:03.631Z,96264.47
2023-01-26T09:26:32.115Z,96264.47
2023-01-26T09:29:00.796Z,96261.28
2023-01-26T09:31:29.418Z,96258.75
2023-01-26T09:33:57.993Z,96263.91
2023-01-26T09:36:28.164Z,96256.78
2023-01-26T09:38:58.016Z,96248.25
2023-01-26T09:42:04.728Z,96248.19
2023-01-26T09:44:37.675Z,96241.00
2023-01-26T09:47:13.934Z,96242.75
2023-01-26T09:49:49.017Z,96241.66
2023-01-26T09:52:24.241Z,96241.47
2023-01-26T09:54:54.769Z,96242.28
2023-01-26T09:57:27.213Z,96243.16
2023-01-26T09:59:59.086Z,96239.00
2023-01-26T10:02:40.051Z,96237.22
2023-01-26T10:05:16.722Z,96238.13
2023-01-26T10:07:47.227Z,96237.16
2023-01-26T10:10:23.535Z,96227.66
2023-01-26T10:12:52.705Z,96231.56
2023-01-26T10:15:30.813Z,96229.16
2023-01-26T10:18:02.414Z,96235.75
2023-01-26T10:20:33.439Z,96225.69
2023-01-26T10:23:07.442Z,96221.63
2023-01-26T10:25:39.014Z,96224.84
2023-01-26T10:28:14.637Z,96223.81
2023-01-26T10:30:48.452Z,96223.03
2023-01-26T10:33:21.060Z,96217.91
2023-01-26T10:35:49.878Z,96206.00
2023-01-26T10:38:41.910Z,96206.81
2023-01-26T10:41:24.944Z,96203.75
2023-01-26T10:43:55.331Z,96201.56
2023-01-26T10:46:26.796Z,96203.06
2023-01-26T10:48:58.963Z,96195.31
2023-01-26T10:51:30.975Z,96189.47
2023-01-26T10:54:22.147Z,96184.31
2023-01-26T10:56:53.020Z,96189.81
2023-01-26T10:59:34.006Z,96183.53
2023-01-26T11:02:04.378Z,96183.09
2023-01-26T11:04:33.108Z,96174.53
2023-01-26T11:07:26.589Z,96178.22
2023-01-26T11:09:58.099Z,96179.22
2023-01-26T11:12:27.109Z,96179.34
2023-01-26T11:15:02.985Z,96179.84
2023-01-26T11:17:37.404Z,96169.91
2023-01-26T11:20:48.928Z,96171.97
2023-01-26T11:23:26.314Z,96166.78
2023-01-26T11:26:25.942Z,96160.59
2023-01-26T11:29:04.176Z,96157.22
2023-01-26T11:31:41.390Z,96149.66
2023-01-26T11:34:19.939Z,96152.59
2023-01-26T11:36:57.204Z,96147.97
2023-01-26T11:39:30.870Z,96141.78
2023-01-26T11:42:18.777Z,96139.00
2023-01-26T11:44:57.906Z,96143.16
2023-01-26T11:47:44.533Z,96139.88
2023-01-26T11:50:24.210Z,96136.94
2023-01-26T11:53:01.853Z,96143.03
2023-01-26T11:55:37.975Z,96134.38
2023-01-26T11:58:23.336Z,96131.72
2023-01-26T12:00:54.070Z,96119.88
2023-01-26T12:03:25.937Z,96124.84
2023-01-26T12:06:19.989Z,96119.81
2023-01-26T12:08:51.207Z,96111.31
2023-01-26T12:11:24.239Z,96124.00
2023-01-26T12:14:20.001Z,96120.13
2023-01-26T12:17:32.689Z,96118.25
2023-01-26T12:20:21.440Z,96109.75
2023-01-26T12:22:54.984Z,96112.78
2023-01-26T12:25:30.213Z,96105.78
2023-01-26T12:28:07.900Z,96101.53
2023-01-26T12:33:30.828Z,96099.72
2023-01-26T12:36:38.023Z,96098.09
2023-01-26T12:39:14.036Z,96095.50
2023-01-26T12:41:55.576Z,96099.47
2023-01-26T12:44:35.251Z,96096.13
2023-01-26T12:47:09.115Z,96104.53
2023-01-26T12:49:53.245Z,96100.97
2023-01-26T12:52:25.459Z,96101.63
2023-01-26T12:55:29.991Z,96106.44
2023-01-26T12:58:01.393Z,96101.25
2023-01-26T13:00:31.960Z,96100.34
2023-01-26T13:03:03.687Z,96098.56
2023-01-26T13:05:35.434Z,96099.31
2023-01-26T13:08:37.448Z,96088.66
2023-01-26T13:11:07.929Z,96094.19
2023-01-26T13:13:53.682Z,96094.19
2023-01-26T13:16:35.315Z,96095.84
2023-01-26T13:19:05.032Z,96090.91
2023-01-26T13:21:47.610Z,96090.16
2023-01-26T13:24:44.658Z,96096.41
2023-01-26T13:27:29.379Z,96092.78
2023-01-26T13:29:58.113Z,96092.63
2023-01-26T13:33:03.865Z,96090.25
2023-01-26T13:35:33.068Z,96092.72
2023-01-26T13:38:13.713Z,96091.03
2023-01-26T13:40:48.249Z,96092.63
2023-01-26T13:43:27.244Z,96093.25
2023-01-26T13:46:02.630Z,96102.31
2023-01-26T13:48:38.992Z,96090.53
2023-01-26T13:51:09.331Z,96092.94
2023-01-26T13:53:41.694Z,96098.69
2023-01-26T13:56:23.621Z,96098.59
2023-01-26T13:58:52.349Z,96096.09
2023-01-26T14:01:22.036Z,96092.28
2023-01-26T14:04:04.320Z,96100.06
2023-01-26T14:06:33.630Z,96096.06
2023-01-26T14:09:05.399Z,96087.09
2023-01-26T14:11:35.179Z,96095.56
2023-01-26T14:14:04.396Z,96099.00
2023-01-26T14:16:34.917Z,96094.66
2023-01-26T14:19:08.364Z,96092.16
2023-01-26T14:21:48.127Z,96097.94
2023-01-26T14:24:18.833Z,96102.16
2023-01-26T14:26:52.072Z,96104.69
2023-01-26T14:29:26.628Z,96098.84
2023-01-26T14:31:58.412Z,96098.09
2023-01-26T14:34:28.647Z,96103.19
2023-01-26T14:37:07.988Z,96101.66
2023-01-26T14:39:40.845Z,96098.38
2023-01-26T14:42:17.741Z,96101.84
2023-01-26T14:44:46.405Z,96098.63
2023-01-26T14:47:18.231Z,96101.47
2023-01-26T14:49:49.198Z,96096.44
2023-01-26T14:52:25.273Z,96103.13
2023-01-26T14:54:56.640Z,96095.63
2023-01-26T14:57:26.977Z,96092.34
2023-01-26T15:00:10.434Z,96101.53
2023-01-26T15:02:40.479Z,96094.81
2023-01-26T15:05:14.100Z,96101.53
2023-01-26T15:07:45.081Z,96104.91
2023-01-26T15:10:38.379Z,96105.69
2023-01-26T15:13:21.023Z,96102.66
2023-01-26T15:16:02.945Z,96107.75
2023-01-26T15:18:35.373Z,96104.47
2023-01-26T15:21:14.682Z,96107.28
2023-01-26T15:23:45.486Z,96102.97
2023-01-26T15:26:38.531Z,96099.56
2023-01-26T15:29:26.383Z,96095.28
2023-01-26T15:31:59.239Z,96108.59
2023-01-26T15:34:33.694Z,96105.06
2023-01-26T15:37:02.928Z,96108.34
2023-01-26T15:39:31.716Z,96110.22
2023-01-26T15:42:14.712Z,96111.97
2023-01-26T15:44:43.855Z,96112.09
2023-01-26T15:47:14.130Z,96105.50
2023-01-26T15:49:43.428Z,96107.50
2023-01-26T15:52:15.469Z,96106.66
2023-01-26T15:54:44.212Z,96109.91
2023-01-26T15:57:14.770Z,96114.84
2023-01-26T15:59:43.257Z,96109.84
2023-01-26T16:02:14.723Z,96116.75
2023-01-26T16:04:43.502Z,96110.09
2023-01-26T16:07:14.291Z,96113.44
2023-01-26T16:09:47.419Z,96120.09
2023-01-26T16:12:30.831Z,96110.72
2023-01-26T16:15:00.991Z,96113.13
2023-01-26T16:17:33.532Z,96117.31
2023-01-26T16:20:02.031Z,96118.09
2023-01-26T16:22:30.543Z,96116.28
2023-01-26T16:24:59.147Z,96113.84
2023-01-26T16:27:29.214Z,96112.22
2023-01-26T16:29:57.982Z,96116.59
2023-01-26T16:32:29.645Z,96116.75
2023-01-26T16:34:58.203Z,96115.94
2023-01-26T16:37:26.951Z,96121.84
2023-01-26T16:39:55.306Z,96124.44
2023-01-26T16:42:23.693Z,96115.13
2023-01-26T16:44:54.000Z,96119.25
2023-01-26T16:47:22.626Z,96122.63
2023-01-26T16:49:51.520Z,96116.66
2023-01-26T16:52:20.359Z,96115.72
2023-01-26T16:54:50.192Z,96116.41
2023-01-26T16:57:18.503Z,96114.72
2023-01-26T16:59:47.692Z,96114.66
2023-01-26T17:02:25.547Z,96116.41
2023-01-26T17:04:54.364Z,96113.19
2023-01-26T17:07:24.678Z,96109.03
2023-01-26T17:09:55.852Z,96117.47
2023-01-26T17:12:25.116Z,96108.22
2023-01-26T17:14:54.066Z,96111.50
2023-01-26T17:17:24.232Z,96102.25
2023-01-26T17:19:52.955Z,96108.09
2023-01-26T17:22:21.668Z,96102.25
2023-01-26T17:24:50.208Z,96100.72
2023-01-26T17:27:19.079Z,96113.31
2023-01-26T17:29:49.490Z,96105.69
2023-01-26T17:32:23.974Z,96112.41
2023-01-26T17:34:54.955Z,96114.94
2023-01-26T17:37:25.277Z,96111.50
2023-01-26T17:40:01.352Z,96118.16
2023-01-26T17:42:30.567Z,96114.72
2023-01-26T17:44:59.202Z,96119.66
2023-01-26T17:47:31.189Z,96111.25
2023-01-26T17:50:01.975Z,96108.69
2023-01-26T17:52:31.584Z,96109.63
2023-01-26T17:55:00.089Z,96109.81
2023-01-26T17:57:28.731Z,96105.69
2023-01-26T18:00:00.249Z,96104.94
2023-01-26T18:02:29.099Z,96101.63
2023-01-26T18:05:01.911Z,96098.31
2023-01-26T18:07:30.960Z,96104.97
2023-01-26T18:09:59.590Z,96104.88
2023-01-26T18:12:28.339Z,96107.38
2023-01-26T18:14:56.938Z,96102.34
2023-01-26T18:17:26.276Z,96104.81
2023-01-26T18:19:56.486Z,96111.50
2023-01-26T18:22:26.672Z,96113.13
2023-01-26T18:24:55.707Z,96115.81
2023-01-26T18:27:26.663Z,96106.72
2023-01-26T18:29:55.485Z,96111.72
2023-01-26T18:32:25.049Z,96110.91
2023-01-26T18:34:54.629Z,96114.19
2023-01-26T18:37:23.520Z,96113.31
2023-01-26T18:39:53.692Z,96126.63
2023-01-26T18:42:22.584Z,96118.09
2023-01-26T18:44:51.166Z,96112.31
2023-01-26T18:47:19.807Z,96114.06
2023-01-26T18:49:48.889Z,96114.94
2023-01-26T18:52:23.150Z,96119.25
2023-01-26T18:54:53.612Z,96104.97
2023-01-26T18:57:22.609Z,96118.47
2023-01-26T19:00:16.874Z,96116.72
2023-01-26T19:02:45.411Z,96114.94
2023-01-26T19:05:14.313Z,96105.69
2023-01-26T19:07:43.335Z,96106.47
2023-01-26T19:10:13.569Z,96110.66
2023-01-26T19:12:45.131Z,96107.31
2023-01-26T19:15:16.899Z,96103.19
2023-01-26T19:17:46.814Z,96104.00
2023-01-26T19:20:18.847Z,96096.50
2023-01-26T19:22:54.061Z,96098.97
2023-01-26T19:25:25.210Z,96098.25
2023-01-26T19:27:54.130Z,96103.34
2023-01-26T19:30:23.044Z,96102.53
2023-01-26T19:33:09.674Z,96094.97
2023-01-26T19:36:03.830Z,96099.13
2023-01-26T19:38:33.501Z,96098.25
2023-01-26T19:41:04.029Z,96105.69
2023-01-26T19:43:33.155Z,96091.53
2023-01-26T19:46:03.045Z,96101.59
2023-01-26T19:48:31.910Z,96096.66
2023-01-26T19:51:03.024Z,96090.75
2023-01-26T19:53:32.317Z,96090.75
2023-01-26T19:56:02.503Z,96089.03
2023-01-26T19:58:31.211Z,96095.75
2023-01-26T20:01:05.072Z,96094.84
2023-01-26T20:03:33.957Z,96089.81
2023-01-26T20:06:03.414Z,96092.28
2023-01-26T20:08:34.232Z,96101.53
2023-01-26T20:11:08.632Z,96098.19
2023-01-26T20:13:38.119Z,96098.25
2023-01-26T20:16:08.437Z,96100.72
2023-01-26T20:18:38.457Z,96093.22
2023-01-26T20:21:07.992Z,96100.66
2023-01-26T20:23:54.340Z,96093.94
2023-01-26T20:26:26.931Z,96099.75
2023-01-26T20:29:17.970Z,96096.44
2023-01-26T20:31:47.382Z,96094.06
2023-01-26T20:34:17.302Z,96092.72
2023-01-26T20:36:46.800Z,96096.25
2023-01-26T20:39:18.781Z,96090.31
2023-01-26T20:41:48.896Z,96095.34
2023-01-26T20:44:17.914Z,96099.63
2023-01-26T20:46:46.693Z,96096.38
2023-01-26T20:49:18.648Z,96092.97
2023-01-26T20:51:48.884Z,96092.13
2023-01-26T20:54:18.252Z,96088.00
2023-01-26T20:56:50.462Z,96089.75
2023-01-26T20:59:19.834Z,96088.84
2023-01-26T21:01:48.473Z,96092.19
2023-01-26T21:04:16.909Z,96088.91
2023-01-26T21:06:45.762Z,96087.28
2023-01-26T21:09:14.531Z,96090.56
2023-01-26T21:11:43.277Z,96086.44
2023-01-26T21:14:15.176Z,96085.78
2023-01-26T21:16:44.203Z,96087.84
2023-01-26T21:19:13.273Z,96091.50
2023-01-26T21:21:42.513Z,96095.59
2023-01-26T21:24:15.162Z,96095.66
2023-01-26T21:26:43.728Z,96092.44
2023-01-26T21:29:16.328Z,96097.56
2023-01-26T21:31:49.109Z,96089.38
2023-01-26T21:34:17.834Z,96094.22
2023-01-26T21:36:47.057Z,96099.19
2023-01-26T21:39:16.492Z,96094.16
2023-01-26T21:41:57.592Z,96089.06
2023-01-26T21:44:28.659Z,96094.09
2023-01-26T21:46:58.770Z,96086.53
2023-01-26T21:49:28.830Z,96085.66
2023-01-26T21:52:15.900Z,96084.66
2023-01-26T21:55:02.919Z,96092.94
2023-01-26T21:57:49.135Z,96087.13
2023-01-26T22:00:20.458Z,96087.13
2023-01-26T22:02:49.183Z,96081.09
2023-01-26T22:05:17.880Z,96087.78
2023-01-26T22:07:46.223Z,96084.44
2023-01-26T22:10:15.628Z,96073.50
2023-01-26T22:12:44.170Z,96074.38
2023-01-26T22:15:14.038Z,96068.47
2023-01-26T22:17:46.087Z,96067.66
2023-01-26T22:20:15.269Z,96071.97
2023-01-26T22:22:43.926Z,96064.47
2023-01-26T22:25:12.562Z,96070.53
2023-01-26T22:27:42.389Z,96068.16
2023-01-26T22:30:12.391Z,96074.16
2023-01-26T22:32:41.604Z,96073.44
2023-01-26T22:35:14.299Z,96066.66
2023-01-26T22:37:44.264Z,96064.84
2023-01-26T22:40:15.108Z,96066.41
2023-01-26T22:42:44.107Z,96058.84
2023-01-26T22:45:15.825Z,96066.28
2023-01-26T22:47:44.957Z,96067.91
2023-01-26T22:50:15.601Z,96061.19
2023-01-26T22:52:44.412Z,96057.84
2023-01-26T22:55:13.204Z,96057.84
2023-01-26T22:57:41.552Z,96059.50
2023-01-26T23:00:11.802Z,96057.06
2023-01-26T23:02:40.616Z,96055.38
2023-01-26T23:05:09.619Z,96050.34
2023-01-26T23:07:39.872Z,96053.63
2023-01-26T23:10:10.146Z,96051.94
2023-01-26T23:12:39.986Z,96055.25
2023-01-26T23:15:09.959Z,96049.44
2023-01-26T23:17:38.753Z,96051.94
2023-01-26T23:20:08.464Z,96048.53
2023-01-26T23:22:43.326Z,96044.44
2023-01-26T23:25:29.093Z,96036.94
2023-01-26T23:28:30.059Z,96041.38
2023-01-26T23:30:59.745Z,96040.66
2023-01-26T23:33:30.015Z,96040.66
2023-01-26T23:36:03.525Z,96032.19
2023-01-26T23:38:33.771Z,96033.03
2023-01-26T23:41:03.314Z,96037.44
2023-01-26T23:43:32.502Z,96041.66
2023-01-26T23:46:01.365Z,96040.84
2023-01-26T23:48:30.654Z,96049.28
2023-01-26T23:51:02.678Z,96043.41
2023-01-26T23:53:33.321Z,96033.47
2023-01-26T23:56:04.091Z,96036.97
2023-01-26T23:58:33.077Z,96034.66
